Amelia, West Virginia
Current Conditions -  °F | °C
As of 6:54 PM on Wednesday 28 Jan 2015 (Local Time) from KCRW Reporting Station
Clear Clear  
Wind Chill: -6°   Ceiling: Unl
Heat Index: -2°   Visibility: 10mi
Dew Point: -11°   Wind: 6mph
Humidity: 53%   Direction: 100°E
Pressure: 30.3"   Gusts: NA
Location:  38.2755°N, 81.3011°W
Report Text: KCRW 282354Z 10005KT 10SM CLR M02/M11 A3030 RMK AO2 SLP273 T10221106 10000 21028 58007
Loading
Personal Weather Stations






























Interactive Weather Map New forecast layout! Learn more

10-Day Weather Forecast

Advertisements
Track Severe Weather on mobile